Time;durP1;ratioP1;P1;durP2;ratioP2;P2;SDS_P1;SDS_P2;PMS_P1;PMS_P2;Temp;Humidity;BMP_temperature;BMP_pressure;BME280_temperature;BME280_humidity;BME280_pressure;Samples;Min_cycle;Max_cycle;Signal;HPM_P1;HPM_P2
2021/12/15 00:01:04;;;;;;;73.20;39.45;;;;;;;;;;5056507;28;20119;-28
2021/12/15 00:03:30;;;;;;;75.65;38.72;;;;;;;;;;5051249;28;20045;-28
2021/12/15 00:05:56;;;;;;;77.18;40.03;;;;;;;;;;5065648;28;20033;-28
2021/12/15 00:08:23;;;;;;;74.20;37.88;;;;;;;;;;5050292;28;20153;-28
2021/12/15 00:10:49;;;;;;;75.93;37.80;;;;;;;;;;5058769;28;20094;-28
2021/12/15 00:13:16;;;;;;;74.97;39.97;;;;;;;;;;5069011;28;20390;-29
2021/12/15 00:15:43;;;;;;;76.60;39.72;;;;;;;;;;5061778;28;20060;-29
2021/12/15 00:18:09;;;;;;;80.47;39.85;;;;;;;;;;5050470;28;20041;-29
2021/12/15 00:20:35;;;;;;;76.55;40.28;;;;;;;;;;5056286;28;20370;-28
2021/12/15 00:23:01;;;;;;;80.32;39.65;;;;;;;;;;5069830;28;20099;-29
2021/12/15 00:25:29;;;;;;;75.95;39.30;;;;;;;;;;5057655;28;20169;-28
2021/12/15 00:27:56;;;;;;;73.00;38.40;;;;;;;;;;5061609;28;20134;-28
2021/12/15 00:30:22;;;;;;;78.65;39.33;;;;;;;;;;5057372;28;21514;-28
2021/12/15 00:32:48;;;;;;;79.25;40.33;;;;;;;;;;5052245;28;20041;-29
2021/12/15 00:35:15;;;;;;;76.95;39.38;;;;;;;;;;5049900;28;20029;-28
2021/12/15 00:37:41;;;;;;;81.93;40.20;;;;;;;;;;5057868;28;20106;-28
2021/12/15 00:40:08;;;;;;;74.57;37.88;;;;;;;;;;5039689;28;20038;-29
2021/12/15 00:42:34;;;;;;;84.35;37.58;;;;;;;;;;5062218;28;20102;-28
2021/12/15 00:45:00;;;;;;;78.90;37.72;;;;;;;;;;5057624;28;20500;-28
2021/12/15 00:47:26;;;;;;;79.50;38.38;;;;;;;;;;5064428;28;20062;-28
2021/12/15 00:49:52;;;;;;;73.63;36.38;;;;;;;;;;5059481;28;20498;-28
2021/12/15 00:52:18;;;;;;;79.70;36.72;;;;;;;;;;5051311;28;20383;-29
2021/12/15 00:54:45;;;;;;;77.32;37.70;;;;;;;;;;5056684;28;20040;-27
2021/12/15 00:57:11;;;;;;;70.35;35.85;;;;;;;;;;5059808;28;20050;-28
2021/12/15 00:59:37;;;;;;;75.75;36.60;;;;;;;;;;5063355;28;20076;-29
2021/12/15 01:02:04;;;;;;;71.07;33.97;;;;;;;;;;5067419;28;20457;-27
2021/12/15 01:04:30;;;;;;;75.65;36.40;;;;;;;;;;5062536;28;20028;-27
2021/12/15 01:06:58;;;;;;;79.50;37.33;;;;;;;;;;5068994;28;20047;-28
2021/12/15 01:09:31;;;;;;;76.45;34.40;;;;;;;;;;5041129;28;20033;-29
2021/12/15 01:12:20;;;;;;;77.45;36.47;;;;;;;;;;5049573;28;20033;-27
2021/12/15 01:20:45;;;;;;;82.53;35.70;;;;;;;;;;5044906;28;20037;-27
2021/12/15 01:23:13;;;;;;;89.57;38.95;;;;;;;;;;5059205;28;20098;-27
2021/12/15 01:25:47;;;;;;;83.03;37.20;;;;;;;;;;5049346;28;20028;-27
2021/12/15 01:28:13;;;;;;;75.60;35.65;;;;;;;;;;5056401;28;20074;-27
2021/12/15 01:30:41;;;;;;;77.85;35.55;;;;;;;;;;5057611;28;20106;-27
2021/12/15 01:33:07;;;;;;;79.15;36.70;;;;;;;;;;5055201;28;20379;-27
2021/12/15 01:35:34;;;;;;;74.20;35.40;;;;;;;;;;5057101;28;20037;-27
2021/12/15 01:38:04;;;;;;;83.45;36.08;;;;;;;;;;5049437;28;20037;-27
2021/12/15 01:40:36;;;;;;;78.18;36.33;;;;;;;;;;5066483;28;20098;-27
2021/12/15 01:43:13;;;;;;;72.88;33.58;;;;;;;;;;5061262;28;20083;-28
2021/12/15 01:48:25;;;;;;;85.50;36.40;;;;;;;;;;5065605;28;20048;-27
2021/12/15 01:50:51;;;;;;;76.82;35.47;;;;;;;;;;5063784;28;20119;-27
2021/12/15 01:53:17;;;;;;;83.72;36.00;;;;;;;;;;5049573;28;20059;-28
2021/12/15 01:55:44;;;;;;;73.80;32.63;;;;;;;;;;5065654;28;20128;-28
2021/12/15 01:58:10;;;;;;;73.38;33.22;;;;;;;;;;5049489;28;20044;-27
2021/12/15 02:00:39;;;;;;;78.35;34.30;;;;;;;;;;5064176;28;20037;-27
2021/12/15 02:03:05;;;;;;;69.40;32.17;;;;;;;;;;5040148;28;20044;-27
2021/12/15 02:05:32;;;;;;;72.40;33.38;;;;;;;;;;5045524;28;20650;-27
2021/12/15 02:08:00;;;;;;;71.00;33.20;;;;;;;;;;5044694;28;20894;-27
2021/12/15 02:10:29;;;;;;;72.30;30.63;;;;;;;;;;5055922;28;20037;-27
2021/12/15 02:12:56;;;;;;;74.93;32.38;;;;;;;;;;5065050;28;20153;-27
2021/12/15 02:15:25;;;;;;;70.40;31.45;;;;;;;;;;5067017;28;20064;-27
2021/12/15 02:17:51;;;;;;;73.85;30.98;;;;;;;;;;5056397;28;20044;-27
2021/12/15 02:20:20;;;;;;;72.45;32.97;;;;;;;;;;5053783;28;20029;-27
2021/12/15 02:22:46;;;;;;;72.28;31.70;;;;;;;;;;5031830;28;20513;-28
2021/12/15 02:25:15;;;;;;;68.97;30.67;;;;;;;;;;5044591;28;20029;-27
2021/12/15 02:27:41;;;;;;;69.00;30.65;;;;;;;;;;5050587;28;20037;-28
2021/12/15 02:30:22;;;;;;;69.57;30.50;;;;;;;;;;5049321;28;20048;-28
2021/12/15 02:33:11;;;;;;;62.88;30.52;;;;;;;;;;5037008;28;20094;-28
2021/12/15 02:38:29;;;;;;;67.03;30.23;;;;;;;;;;5053517;28;20045;-27
2021/12/15 02:41:04;;;;;;;65.30;30.80;;;;;;;;;;5042860;28;20037;-28
2021/12/15 02:43:31;;;;;;;67.00;30.42;;;;;;;;;;5050220;28;20485;-27
2021/12/15 02:45:58;;;;;;;64.18;29.13;;;;;;;;;;5061537;28;20509;-28
2021/12/15 02:48:24;;;;;;;62.63;28.98;;;;;;;;;;5068689;28;20044;-28
2021/12/15 02:50:50;;;;;;;59.08;29.33;;;;;;;;;;5072031;28;20497;-28
2021/12/15 02:53:17;;;;;;;65.03;29.17;;;;;;;;;;5053048;28;20037;-27
2021/12/15 02:55:43;;;;;;;62.58;30.42;;;;;;;;;;5057470;28;20131;-27
2021/12/15 02:58:10;;;;;;;60.58;29.80;;;;;;;;;;5058915;28;20045;-27
2021/12/15 03:00:48;;;;;;;71.00;30.63;;;;;;;;;;5061311;28;20041;-27
2021/12/15 03:05:52;;;;;;;66.45;31.85;;;;;;;;;;5067867;28;20076;-28
2021/12/15 03:08:23;;;;;;;71.40;31.67;;;;;;;;;;5067268;28;20049;-29
2021/12/15 03:16:21;;;;;;;72.43;33.45;;;;;;;;;;5051907;28;20033;-27
2021/12/15 03:18:48;;;;;;;80.30;33.80;;;;;;;;;;5061286;28;20081;-27
2021/12/15 03:21:16;;;;;;;76.22;33.25;;;;;;;;;;5070163;28;20048;-27
2021/12/15 03:23:53;;;;;;;75.88;35.03;;;;;;;;;;5069663;28;20036;-27
2021/12/15 03:26:26;;;;;;;85.43;35.05;;;;;;;;;;5062217;28;20044;-27
2021/12/15 03:34:39;;;;;;;81.75;37.28;;;;;;;;;;5059600;28;20491;-27
2021/12/15 03:37:22;;;;;;;79.10;34.72;;;;;;;;;;5047201;28;20108;-27
2021/12/15 03:39:49;;;;;;;76.57;35.83;;;;;;;;;;5049221;28;20512;-26
2021/12/15 03:42:18;;;;;;;81.60;34.15;;;;;;;;;;5058290;28;20040;-26
2021/12/15 03:44:45;;;;;;;82.20;37.33;;;;;;;;;;5055684;28;20046;-26
2021/12/15 03:47:13;;;;;;;85.55;36.88;;;;;;;;;;5056276;28;20040;-26
2021/12/15 03:49:40;;;;;;;90.72;38.45;;;;;;;;;;5053062;28;20033;-26
2021/12/15 03:52:07;;;;;;;88.10;37.30;;;;;;;;;;5027394;28;20392;-29
2021/12/15 03:54:33;;;;;;;84.05;37.90;;;;;;;;;;5050037;28;20177;-27
2021/12/15 03:57:00;;;;;;;86.25;37.17;;;;;;;;;;5042093;28;20032;-28
2021/12/15 03:59:28;;;;;;;92.38;39.05;;;;;;;;;;5070596;28;20093;-29
2021/12/15 04:02:00;;;;;;;81.28;36.53;;;;;;;;;;5060161;28;20041;-26
2021/12/15 04:04:26;;;;;;;86.75;38.55;;;;;;;;;;5052241;28;20128;-26
2021/12/15 04:06:52;;;;;;;93.85;39.65;;;;;;;;;;5033842;28;20047;-26
2021/12/15 04:09:18;;;;;;;95.78;40.17;;;;;;;;;;5051541;28;20041;-26
2021/12/15 04:11:45;;;;;;;87.30;39.67;;;;;;;;;;5050713;28;20072;-26
2021/12/15 04:14:21;;;;;;;89.60;38.90;;;;;;;;;;5051295;28;20112;-26
2021/12/15 04:17:00;;;;;;;88.32;40.30;;;;;;;;;;5050686;28;20072;-26
2021/12/15 04:19:26;;;;;;;101.75;48.85;;;;;;;;;;5050917;28;20084;-26
2021/12/15 04:21:55;;;;;;;79.68;39.10;;;;;;;;;;5050306;28;20048;-26
2021/12/15 04:24:23;;;;;;;91.43;43.67;;;;;;;;;;5050410;28;20041;-26
2021/12/15 04:26:50;;;;;;;98.47;43.75;;;;;;;;;;5050472;28;20053;-26
2021/12/15 04:29:16;;;;;;;93.75;42.55;;;;;;;;;;5050318;28;20115;-26
2021/12/15 04:31:48;;;;;;;94.95;43.72;;;;;;;;;;5050482;28;20440;-26
2021/12/15 04:34:15;;;;;;;91.47;42.38;;;;;;;;;;5049532;28;20072;-26
2021/12/15 04:36:43;;;;;;;93.63;40.70;;;;;;;;;;5050112;28;20465;-26
2021/12/15 04:39:18;;;;;;;94.30;42.45;;;;;;;;;;5050107;28;20041;-26
2021/12/15 04:41:48;;;;;;;87.28;42.15;;;;;;;;;;5050165;28;20411;-25
2021/12/15 04:44:15;;;;;;;97.97;44.00;;;;;;;;;;5050002;28;20134;-26
2021/12/15 04:46:45;;;;;;;96.10;41.78;;;;;;;;;;5049778;28;20301;-26
2021/12/15 04:49:12;;;;;;;91.07;43.28;;;;;;;;;;5050004;28;20049;-26
2021/12/15 04:51:38;;;;;;;93.32;44.75;;;;;;;;;;5050340;28;20086;-26
2021/12/15 04:54:05;;;;;;;97.28;45.63;;;;;;;;;;5050110;28;20089;-26
2021/12/15 04:56:31;;;;;;;97.00;49.47;;;;;;;;;;5050075;28;20116;-26
2021/12/15 04:58:57;;;;;;;94.20;43.47;;;;;;;;;;5049632;28;20041;-26
2021/12/15 05:01:24;;;;;;;96.70;45.90;;;;;;;;;;5049715;28;20076;-26
2021/12/15 05:03:50;;;;;;;94.65;43.45;;;;;;;;;;5049041;28;20105;-26
2021/12/15 05:06:16;;;;;;;92.03;45.63;;;;;;;;;;5049706;28;20155;-26
2021/12/15 05:08:42;;;;;;;97.78;46.58;;;;;;;;;;5049406;28;20102;-26
2021/12/15 05:11:10;;;;;;;100.78;46.88;;;;;;;;;;5049659;28;20102;-26
2021/12/15 05:13:36;;;;;;;104.70;47.65;;;;;;;;;;5049659;28;20533;-26
2021/12/15 05:16:11;;;;;;;92.95;44.47;;;;;;;;;;5049646;28;20099;-26
2021/12/15 05:18:37;;;;;;;94.88;43.50;;;;;;;;;;5049602;28;20133;-26
2021/12/15 05:21:07;;;;;;;95.10;44.40;;;;;;;;;;5049554;28;20098;-26
2021/12/15 05:23:33;;;;;;;90.45;42.88;;;;;;;;;;5049370;28;20383;-26
2021/12/15 05:26:00;;;;;;;90.30;42.70;;;;;;;;;;5031763;28;20045;-26
2021/12/15 05:28:27;;;;;;;90.47;44.92;;;;;;;;;;5049370;28;20041;-26
2021/12/15 05:30:53;;;;;;;92.78;44.25;;;;;;;;;;5049570;28;20086;-26
2021/12/15 05:33:21;;;;;;;91.47;45.67;;;;;;;;;;5049994;28;20045;-26
2021/12/15 05:35:47;;;;;;;90.68;43.60;;;;;;;;;;5048709;28;20033;-27
2021/12/15 05:38:13;;;;;;;99.68;47.33;;;;;;;;;;5049373;28;20452;-26
2021/12/15 05:40:39;;;;;;;97.40;44.40;;;;;;;;;;5049762;28;20064;-26
2021/12/15 05:43:06;;;;;;;94.60;46.28;;;;;;;;;;5049355;28;20135;-26
2021/12/15 05:45:34;;;;;;;94.97;45.20;;;;;;;;;;5049716;28;20045;-26
2021/12/15 05:48:01;;;;;;;95.45;44.85;;;;;;;;;;5050371;28;20549;-26
2021/12/15 05:50:29;;;;;;;93.63;45.85;;;;;;;;;;5050596;28;20120;-26
2021/12/15 05:52:58;;;;;;;91.93;46.13;;;;;;;;;;5050475;28;20102;-26
2021/12/15 05:55:24;;;;;;;87.68;44.72;;;;;;;;;;5049889;28;20132;-26
2021/12/15 05:57:50;;;;;;;97.18;44.92;;;;;;;;;;5032367;28;20405;-26
2021/12/15 06:00:18;;;;;;;95.25;46.97;;;;;;;;;;5050199;28;20087;-26
2021/12/15 06:02:44;;;;;;;92.82;45.40;;;;;;;;;;5050702;28;20401;-26
2021/12/15 06:05:11;;;;;;;95.57;46.13;;;;;;;;;;5050039;28;20120;-26
2021/12/15 06:07:40;;;;;;;94.72;46.03;;;;;;;;;;5050127;28;20056;-26
2021/12/15 06:10:12;;;;;;;96.80;47.63;;;;;;;;;;5050232;28;20040;-26
2021/12/15 06:12:38;;;;;;;97.57;45.47;;;;;;;;;;5032233;28;20072;-26
2021/12/15 06:15:06;;;;;;;96.05;46.55;;;;;;;;;;5052968;28;20036;-26
2021/12/15 06:17:32;;;;;;;92.95;47.22;;;;;;;;;;5054316;28;20044;-26
2021/12/15 06:19:59;;;;;;;99.03;48.38;;;;;;;;;;5054122;28;20079;-26
2021/12/15 06:22:27;;;;;;;95.78;48.08;;;;;;;;;;5054172;28;20053;-26
2021/12/15 06:24:54;;;;;;;94.90;46.65;;;;;;;;;;5053943;28;20072;-26
2021/12/15 06:27:21;;;;;;;90.32;46.05;;;;;;;;;;5053855;28;20047;-26
2021/12/15 06:29:48;;;;;;;96.85;48.90;;;;;;;;;;5053810;28;20049;-26
2021/12/15 06:32:23;;;;;;;92.60;44.47;;;;;;;;;;5053689;28;20037;-26
2021/12/15 06:34:49;;;;;;;98.50;46.08;;;;;;;;;;5053254;28;20044;-26
2021/12/15 06:37:15;;;;;;;94.88;44.70;;;;;;;;;;5053619;28;20068;-26
2021/12/15 06:39:41;;;;;;;103.78;49.00;;;;;;;;;;5053809;28;20603;-26
2021/12/15 06:42:07;;;;;;;103.63;48.97;;;;;;;;;;5035646;28;20490;-26
2021/12/15 06:44:34;;;;;;;111.15;54.38;;;;;;;;;;5053562;28;20044;-26
2021/12/15 07:00:30;;;;;;;141.60;66.55;;;;;;;;;;5052951;28;20537;-30
2021/12/15 07:02:57;;;;;;;156.68;70.53;;;;;;;;;;5053187;28;20090;-27
2021/12/15 07:05:24;;;;;;;133.88;63.45;;;;;;;;;;5053314;28;20033;-27
2021/12/15 07:07:52;;;;;;;97.85;45.30;;;;;;;;;;5053000;28;20048;-27
2021/12/15 07:10:21;;;;;;;108.40;52.88;;;;;;;;;;5053162;28;20044;-27
2021/12/15 07:12:47;;;;;;;101.65;51.38;;;;;;;;;;5052606;28;20478;-27
2021/12/15 07:15:13;;;;;;;98.13;47.97;;;;;;;;;;5052364;28;20132;-27
2021/12/15 07:17:40;;;;;;;98.60;48.38;;;;;;;;;;5033900;28;20045;-27
2021/12/15 07:20:30;;;;;;;99.50;49.10;;;;;;;;;;5052073;28;20085;-27
2021/12/15 07:22:54;;;;;;;97.68;46.83;;;;;;;;;;5051830;28;20045;-27
2021/12/15 07:25:21;;;;;;;88.38;44.33;;;;;;;;;;5051151;28;20037;-27
2021/12/15 07:27:49;;;;;;;97.47;46.38;;;;;;;;;;5051896;28;20052;-27
2021/12/15 07:30:16;;;;;;;92.65;45.03;;;;;;;;;;5051721;28;20047;-28
2021/12/15 07:32:42;;;;;;;95.38;43.75;;;;;;;;;;5052084;28;20040;-27
2021/12/15 07:35:09;;;;;;;93.22;45.90;;;;;;;;;;5051859;28;20510;-27
2021/12/15 07:37:36;;;;;;;94.40;44.03;;;;;;;;;;5050789;28;20041;-27
2021/12/15 07:40:05;;;;;;;93.05;45.22;;;;;;;;;;5050866;28;20037;-27
2021/12/15 07:42:41;;;;;;;92.30;42.80;;;;;;;;;;5051740;28;20501;-27
2021/12/15 07:45:08;;;;;;;90.82;42.65;;;;;;;;;;5033228;28;20051;-27
2021/12/15 07:47:34;;;;;;;93.57;43.35;;;;;;;;;;5050939;28;20059;-27
2021/12/15 07:50:01;;;;;;;93.18;43.03;;;;;;;;;;5051259;28;20052;-27
2021/12/15 07:52:28;;;;;;;93.05;43.17;;;;;;;;;;5052037;28;20446;-27
2021/12/15 07:54:54;;;;;;;90.05;44.78;;;;;;;;;;5052338;28;20037;-27
2021/12/15 07:57:22;;;;;;;93.75;41.65;;;;;;;;;;5053114;28;20069;-27
2021/12/15 07:59:48;;;;;;;87.05;43.88;;;;;;;;;;5035583;28;20268;-27
2021/12/15 08:02:14;;;;;;;92.97;43.15;;;;;;;;;;5052439;28;20045;-28
2021/12/15 08:04:40;;;;;;;90.20;44.88;;;;;;;;;;5052421;28;20072;-27
2021/12/15 08:07:06;;;;;;;96.97;45.55;;;;;;;;;;5052569;28;20045;-27
2021/12/15 08:09:32;;;;;;;90.53;43.65;;;;;;;;;;5051631;28;20045;-28
2021/12/15 08:11:58;;;;;;;93.38;44.53;;;;;;;;;;5051647;28;20037;-28
2021/12/15 08:14:26;;;;;;;91.07;42.67;;;;;;;;;;5051123;28;20482;-28
2021/12/15 08:16:52;;;;;;;97.10;45.72;;;;;;;;;;5048862;28;20060;-27
2021/12/15 08:19:19;;;;;;;89.15;43.75;;;;;;;;;;5049809;28;20040;-28
2021/12/15 08:21:45;;;;;;;86.80;42.75;;;;;;;;;;5051978;28;20178;-28
2021/12/15 08:24:12;;;;;;;84.15;39.55;;;;;;;;;;5053221;28;20041;-27
2021/12/15 08:26:38;;;;;;;89.80;42.53;;;;;;;;;;5052834;28;20084;-27
2021/12/15 08:29:04;;;;;;;94.18;44.17;;;;;;;;;;5052691;28;20049;-27
2021/12/15 08:31:30;;;;;;;91.88;41.92;;;;;;;;;;5052384;28;20083;-27
2021/12/15 08:33:56;;;;;;;90.85;43.03;;;;;;;;;;5052691;28;20034;-34
2021/12/15 08:36:23;;;;;;;84.00;40.03;;;;;;;;;;5051869;28;20094;-28
2021/12/15 08:38:49;;;;;;;91.55;45.60;;;;;;;;;;5050688;28;20041;-27
2021/12/15 08:41:27;;;;;;;89.85;42.15;;;;;;;;;;5051646;28;20041;-28
2021/12/15 08:43:54;;;;;;;88.43;44.35;;;;;;;;;;5052213;28;20041;-28
2021/12/15 08:46:21;;;;;;;81.57;41.40;;;;;;;;;;5052422;28;20045;-27
2021/12/15 08:48:48;;;;;;;92.07;42.55;;;;;;;;;;5034210;28;20482;-30
2021/12/15 08:51:15;;;;;;;91.45;42.70;;;;;;;;;;5051894;28;20482;-30
2021/12/15 08:53:42;;;;;;;86.18;41.55;;;;;;;;;;5051279;28;20044;-31
2021/12/15 08:56:09;;;;;;;84.65;39.45;;;;;;;;;;5051101;28;20044;-31
2021/12/15 08:58:35;;;;;;;84.60;38.63;;;;;;;;;;5046802;28;20568;-30
2021/12/15 09:01:02;;;;;;;84.13;39.58;;;;;;;;;;5048593;28;20135;-30
2021/12/15 09:03:29;;;;;;;81.50;39.17;;;;;;;;;;5042804;28;20047;-30
2021/12/15 09:05:56;;;;;;;84.82;39.53;;;;;;;;;;5050695;28;20072;-30
2021/12/15 09:08:23;;;;;;;79.25;39.08;;;;;;;;;;5041415;28;20046;-30
2021/12/15 09:10:50;;;;;;;84.65;39.22;;;;;;;;;;5047011;28;20054;-30
2021/12/15 09:13:16;;;;;;;80.63;39.20;;;;;;;;;;5049768;28;20509;-30
2021/12/15 09:15:48;;;;;;;81.55;38.53;;;;;;;;;;5042770;28;20041;-28
2021/12/15 09:18:15;;;;;;;77.57;39.03;;;;;;;;;;5047726;28;20453;-29
2021/12/15 09:20:42;;;;;;;77.88;37.22;;;;;;;;;;5044880;28;20413;-30
2021/12/15 09:23:09;;;;;;;72.53;36.85;;;;;;;;;;5041725;28;20486;-30
2021/12/15 09:25:36;;;;;;;77.68;37.45;;;;;;;;;;5040912;28;20086;-31
2021/12/15 09:28:03;;;;;;;77.05;37.67;;;;;;;;;;5049363;28;20041;-29
2021/12/15 09:30:30;;;;;;;79.68;37.55;;;;;;;;;;5046041;28;20045;-29
2021/12/15 09:32:57;;;;;;;75.47;36.95;;;;;;;;;;5043583;28;20037;-29
2021/12/15 09:35:24;;;;;;;84.55;36.78;;;;;;;;;;5047291;28;20033;-26
2021/12/15 09:37:51;;;;;;;72.28;36.17;;;;;;;;;;5036525;28;20033;-28
2021/12/15 09:40:18;;;;;;;73.85;36.72;;;;;;;;;;5042292;28;20498;-27
2021/12/15 09:42:44;;;;;;;77.35;38.33;;;;;;;;;;5040781;28;20044;-28
2021/12/15 09:45:22;;;;;;;78.03;38.20;;;;;;;;;;5066242;22;20052;-28
2021/12/15 10:02:03;;;;;;;65.05;32.97;;;;;;;;;;5079280;28;20081;-28
2021/12/15 10:04:39;;;;;;;68.68;35.42;;;;;;;;;;5054129;28;20406;-28
2021/12/15 10:18:57;;;;;;;67.32;34.08;;;;;;;;;;5058250;28;20040;-28
2021/12/15 10:21:29;;;;;;;71.03;33.92;;;;;;;;;;5070137;28;20048;-28
2021/12/15 10:24:10;;;;;;;68.13;34.83;;;;;;;;;;5069465;28;20033;-27
2021/12/15 10:26:55;;;;;;;70.28;33.78;;;;;;;;;;5073137;28;20072;-26
2021/12/15 10:29:21;;;;;;;66.72;33.85;;;;;;;;;;5072378;28;20033;-29
2021/12/15 10:31:56;;;;;;;73.53;33.45;;;;;;;;;;5031652;28;20061;-26
2021/12/15 10:34:22;;;;;;;65.35;34.38;;;;;;;;;;5054695;28;20036;-26
2021/12/15 10:36:49;;;;;;;58.35;30.60;;;;;;;;;;5054896;28;20116;-26
2021/12/15 10:39:15;;;;;;;63.20;32.35;;;;;;;;;;5054361;28;20053;-27
2021/12/15 10:41:42;;;;;;;68.93;33.33;;;;;;;;;;5054368;28;20055;-26
2021/12/15 10:44:12;;;;;;;53.92;29.73;;;;;;;;;;5053700;28;20052;-27
2021/12/15 10:46:43;;;;;;;58.55;30.50;;;;;;;;;;5053367;28;20045;-26
2021/12/15 10:49:11;;;;;;;51.83;27.83;;;;;;;;;;5035349;28;20037;-26
2021/12/15 10:51:44;;;;;;;48.90;25.90;;;;;;;;;;5053257;28;20128;-26
2021/12/15 10:54:10;;;;;;;50.42;27.27;;;;;;;;;;5054647;28;20178;-27
2021/12/15 10:56:37;;;;;;;45.20;26.20;;;;;;;;;;5054324;28;20068;-26
2021/12/15 10:59:06;;;;;;;43.88;26.02;;;;;;;;;;5054329;28;20371;-27
2021/12/15 11:01:37;;;;;;;50.22;28.88;;;;;;;;;;5052730;28;20094;-26
2021/12/15 11:04:13;;;;;;;47.28;26.35;;;;;;;;;;5053808;28;20101;-26
2021/12/15 11:06:39;;;;;;;47.72;27.50;;;;;;;;;;5054923;28;20054;-27
2021/12/15 11:09:13;;;;;;;48.72;27.55;;;;;;;;;;5054488;28;20041;-27
2021/12/15 11:11:39;;;;;;;40.85;24.02;;;;;;;;;;5054767;28;20045;-27
2021/12/15 11:14:24;;;;;;;49.17;26.95;;;;;;;;;;5054965;28;20394;-27
2021/12/15 11:17:08;;;;;;;44.05;25.17;;;;;;;;;;5054875;28;20186;-27
2021/12/15 11:19:58;;;;;;;45.35;25.33;;;;;;;;;;5055765;28;20040;-30
2021/12/15 11:22:44;;;;;;;41.65;23.67;;;;;;;;;;5069724;28;20036;-30
2021/12/15 11:25:10;;;;;;;38.08;24.58;;;;;;;;;;5070032;28;20044;-25
2021/12/15 11:27:36;;;;;;;48.40;26.25;;;;;;;;;;5071306;28;20083;-27
2021/12/15 11:30:07;;;;;;;42.80;24.73;;;;;;;;;;5071378;28;20287;-26
2021/12/15 11:32:37;;;;;;;38.38;21.88;;;;;;;;;;5071164;28;20048;-26
2021/12/15 11:35:05;;;;;;;42.55;25.17;;;;;;;;;;5073771;28;20059;-30
2021/12/15 11:37:45;;;;;;;44.53;25.98;;;;;;;;;;5071937;28;20392;-27
2021/12/15 11:40:11;;;;;;;39.00;24.10;;;;;;;;;;5071016;28;20040;-27
2021/12/15 11:42:39;;;;;;;41.30;23.45;;;;;;;;;;5061895;28;20044;-27
2021/12/15 11:45:06;;;;;;;44.55;24.52;;;;;;;;;;5073140;28;20044;-27
2021/12/15 11:47:33;;;;;;;39.38;23.52;;;;;;;;;;5072179;28;20040;-27
2021/12/15 11:50:06;;;;;;;37.05;22.60;;;;;;;;;;5072910;28;20429;-28
2021/12/15 11:52:47;;;;;;;43.30;24.40;;;;;;;;;;5073358;28;20049;-29
2021/12/15 11:55:28;;;;;;;38.70;22.55;;;;;;;;;;5072700;28;20032;-26
2021/12/15 11:57:57;;;;;;;42.53;24.08;;;;;;;;;;5072669;28;20036;-27
2021/12/15 12:00:28;;;;;;;43.75;23.88;;;;;;;;;;5072943;28;20044;-27
2021/12/15 12:02:56;;;;;;;40.03;22.25;;;;;;;;;;5073034;28;20044;-27
2021/12/15 12:05:26;;;;;;;38.15;23.20;;;;;;;;;;5072480;28;20044;-27
2021/12/15 12:07:58;;;;;;;33.60;20.05;;;;;;;;;;5054288;28;20041;-27
2021/12/15 12:10:44;;;;;;;47.08;27.33;;;;;;;;;;5071976;28;20052;-27
2021/12/15 12:13:14;;;;;;;39.95;23.38;;;;;;;;;;5066721;28;20044;-27
2021/12/15 12:15:42;;;;;;;49.90;27.10;;;;;;;;;;5070153;28;20048;-27
2021/12/15 12:18:12;;;;;;;41.15;23.35;;;;;;;;;;5071456;28;20043;-27
2021/12/15 12:20:40;;;;;;;37.03;21.05;;;;;;;;;;5070672;28;20041;-27
2021/12/15 12:23:11;;;;;;;44.58;28.58;;;;;;;;;;5071899;28;20119;-27
2021/12/15 12:25:42;;;;;;;30.05;19.25;;;;;;;;;;5059165;28;20035;-27
2021/12/15 12:28:10;;;;;;;36.80;20.63;;;;;;;;;;5063160;28;20512;-27
2021/12/15 12:30:43;;;;;;;32.55;20.30;;;;;;;;;;5073011;28;20136;-27
2021/12/15 12:33:10;;;;;;;33.97;19.70;;;;;;;;;;5072553;28;20036;-27
2021/12/15 12:35:47;;;;;;;36.75;26.73;;;;;;;;;;5072806;28;20485;-27
2021/12/15 12:38:22;;;;;;;30.45;18.70;;;;;;;;;;5072475;28;20033;-27
2021/12/15 12:40:53;;;;;;;28.38;17.13;;;;;;;;;;5062618;28;20032;-27
2021/12/15 12:43:22;;;;;;;30.25;17.50;;;;;;;;;;5067093;28;20067;-29
2021/12/15 12:46:15;;;;;;;30.23;18.60;;;;;;;;;;5070576;28;20044;-29
2021/12/15 12:48:54;;;;;;;30.63;18.35;;;;;;;;;;5070389;28;20045;-29
2021/12/15 12:59:44;;;;;;;27.35;16.30;;;;;;;;;;5069837;28;20040;-29
2021/12/15 13:02:43;;;;;;;34.20;18.35;;;;;;;;;;5069383;28;20052;-29
2021/12/15 13:05:28;;;;;;;30.05;19.75;;;;;;;;;;5042142;28;20421;-30
2021/12/15 13:07:55;;;;;;;30.63;17.63;;;;;;;;;;5067091;28;20462;-30
2021/12/15 13:10:22;;;;;;;32.45;18.27;;;;;;;;;;5062808;28;20111;-30
2021/12/15 13:13:08;;;;;;;24.33;17.67;;;;;;;;;;5069022;28;20040;-30
2021/12/15 13:15:34;;;;;;;28.80;18.00;;;;;;;;;;5053428;28;20036;-29
2021/12/15 13:18:03;;;;;;;29.95;18.35;;;;;;;;;;5075947;28;20035;-29
2021/12/15 13:20:32;;;;;;;25.98;17.20;;;;;;;;;;5069657;28;20037;-29
2021/12/15 13:31:19;;;;;;;33.38;19.55;;;;;;;;;;5083923;28;20132;-30
2021/12/15 13:33:53;;;;;;;37.50;22.25;;;;;;;;;;5070450;28;20489;-30
2021/12/15 13:36:19;;;;;;;;;;;;;;;;;;5070797;28;20040;-30
2021/12/15 13:39:03;;;;;;;35.38;20.30;;;;;;;;;;5074293;28;19916;-27
2021/12/15 13:44:04;;;;;;;26.35;15.95;;;;;;;;;;5072710;28;19916;-27
2021/12/15 13:46:39;;;;;;;26.13;15.48;;;;;;;;;;5072250;28;20277;-28
2021/12/15 13:49:23;;;;;;;36.22;22.08;;;;;;;;;;5071667;28;20041;-26
2021/12/15 13:51:52;;;;;;;;;;;;;;;;;;5072877;28;20444;-26
2021/12/15 13:54:22;;;;;;;23.38;15.63;;;;;;;;;;5072192;28;20148;-26
2021/12/15 13:56:50;;;;;;;19.25;11.57;;;;;;;;;;5072132;28;20389;-26
2021/12/15 13:59:37;;;;;;;15.88;10.38;;;;;;;;;;5071904;28;20072;-27
2021/12/15 14:02:09;;;;;;;15.32;8.60;;;;;;;;;;5071923;28;20040;-27
2021/12/15 14:04:43;;;;;;;14.73;9.30;;;;;;;;;;5071216;28;20044;-27
2021/12/15 14:07:35;;;;;;;17.05;9.60;;;;;;;;;;5071418;28;20037;-27
2021/12/15 14:10:04;;;;;;;16.60;10.73;;;;;;;;;;5067368;28;20040;-27
2021/12/15 14:12:45;;;;;;;16.85;10.00;;;;;;;;;;5071887;28;20044;-27
2021/12/15 14:15:34;;;;;;;13.90;8.90;;;;;;;;;;5068593;28;20040;-29
2021/12/15 14:18:08;;;;;;;13.77;8.05;;;;;;;;;;5067850;28;20036;-27
2021/12/15 14:20:38;;;;;;;15.05;8.68;;;;;;;;;;5071766;28;20508;-27
2021/12/15 14:23:28;;;;;;;14.55;7.75;;;;;;;;;;5071432;28;20044;-27
2021/12/15 14:25:57;;;;;;;11.32;6.35;;;;;;;;;;5060543;28;20264;-27
2021/12/15 14:28:31;;;;;;;11.00;6.18;;;;;;;;;;5071290;28;20045;-27
2021/12/15 14:31:00;;;;;;;10.65;5.47;;;;;;;;;;5071478;28;20045;-28
2021/12/15 14:33:40;;;;;;;8.23;4.72;;;;;;;;;;5071409;28;20401;-27
2021/12/15 14:36:12;;;;;;;7.80;4.55;;;;;;;;;;5073738;28;20505;-26
2021/12/15 14:38:43;;;;;;;7.38;4.82;;;;;;;;;;5074592;28;20178;-27
2021/12/15 14:41:17;;;;;;;10.00;5.63;;;;;;;;;;5074632;28;20039;-27
2021/12/15 14:43:47;;;;;;;13.80;6.80;;;;;;;;;;5074503;28;20430;-28
2021/12/15 14:46:18;;;;;;;12.48;7.78;;;;;;;;;;5074406;28;20115;-26
2021/12/15 14:48:53;;;;;;;12.35;6.95;;;;;;;;;;5074682;28;20059;-27
2021/12/15 14:51:25;;;;;;;7.88;5.07;;;;;;;;;;5074514;28;20114;-27
2021/12/15 14:53:51;;;;;;;10.18;6.20;;;;;;;;;;5074016;28;20044;-27
2021/12/15 14:56:17;;;;;;;8.55;5.50;;;;;;;;;;5055812;28;20036;-27
2021/12/15 14:58:43;;;;;;;8.45;5.30;;;;;;;;;;5074508;28;20119;-27
2021/12/15 15:01:12;;;;;;;9.43;5.13;;;;;;;;;;5074583;28;20120;-26
2021/12/15 15:03:39;;;;;;;6.65;4.38;;;;;;;;;;5074301;28;20489;-27
2021/12/15 15:06:05;;;;;;;6.93;4.50;;;;;;;;;;5074696;28;20036;-27
2021/12/15 15:08:37;;;;;;;5.57;3.20;;;;;;;;;;5074768;28;20044;-26
2021/12/15 15:11:09;;;;;;;7.40;2.70;;;;;;;;;;5075269;28;20447;-27
2021/12/15 15:13:35;;;;;;;4.28;2.53;;;;;;;;;;5075120;28;20131;-27
2021/12/15 15:16:06;;;;;;;6.95;3.60;;;;;;;;;;5075336;28;20032;-26
2021/12/15 15:18:34;;;;;;;5.25;2.70;;;;;;;;;;5075243;28;20409;-26
2021/12/15 15:21:20;;;;;;;5.68;3.00;;;;;;;;;;5074906;28;20156;-27
2021/12/15 15:23:58;;;;;;;2.90;2.13;;;;;;;;;;5073316;28;20048;-26
2021/12/15 15:26:28;;;;;;;7.28;4.82;;;;;;;;;;5074592;28;20072;-27
2021/12/15 15:28:54;;;;;;;6.82;2.28;;;;;;;;;;5074572;28;20064;-27
2021/12/15 15:31:34;;;;;;;3.25;2.17;;;;;;;;;;5073138;28;20063;-27
2021/12/15 15:34:06;;;;;;;4.13;2.03;;;;;;;;;;5074394;28;20489;-27
2021/12/15 15:36:32;;;;;;;2.97;1.80;;;;;;;;;;5074234;28;20173;-27
2021/12/15 15:39:09;;;;;;;3.33;2.22;;;;;;;;;;5074281;28;20486;-28
2021/12/15 15:41:50;;;;;;;3.45;1.88;;;;;;;;;;5074155;28;20045;-27
2021/12/15 15:44:17;;;;;;;2.28;1.98;;;;;;;;;;5074274;28;20071;-26
2021/12/15 15:46:54;;;;;;;2.38;1.45;;;;;;;;;;5073313;28;20085;-26
2021/12/15 15:49:23;;;;;;;4.93;1.92;;;;;;;;;;5072634;28;20132;-26
2021/12/15 15:51:51;;;;;;;2.63;1.65;;;;;;;;;;5074019;28;20047;-26
2021/12/15 15:54:22;;;;;;;4.13;1.90;;;;;;;;;;5072845;28;20090;-26
2021/12/15 15:56:54;;;;;;;4.85;1.55;;;;;;;;;;5059313;28;20052;-27
2021/12/15 15:59:27;;;;;;;1.95;1.35;;;;;;;;;;5069881;28;20299;-28